sensor_id;sensor_type;location;lat;lon;timestamp;P1;durP1;ratioP1;P2;durP2;ratioP2
12312;SDS011;6220;53.580;9.758;2022-11-15T00:01:06;26.97;;;20.80;;
12312;SDS011;6220;53.580;9.758;2022-11-15T00:03:33;26.57;;;20.33;;
12312;SDS011;6220;53.580;9.758;2022-11-15T00:06:02;28.93;;;20.50;;
12312;SDS011;6220;53.580;9.758;2022-11-15T00:08:29;30.07;;;21.27;;
12312;SDS011;6220;53.580;9.758;2022-11-15T00:10:56;26.93;;;20.67;;
12312;SDS011;6220;53.580;9.758;2022-11-15T00:13:22;27.27;;;20.70;;
12312;SDS011;6220;53.580;9.758;2022-11-15T00:15:47;25.77;;;20.90;;
12312;SDS011;6220;53.580;9.758;2022-11-15T00:18:13;26.43;;;20.70;;
12312;SDS011;6220;53.580;9.758;2022-11-15T00:20:40;26.80;;;20.97;;
12312;SDS011;6220;53.580;9.758;2022-11-15T00:23:05;26.97;;;21.23;;
12312;SDS011;6220;53.580;9.758;2022-11-15T00:25:31;28.57;;;22.37;;
12312;SDS011;6220;53.580;9.758;2022-11-15T00:27:57;32.90;;;22.13;;
12312;SDS011;6220;53.580;9.758;2022-11-15T00:30:23;29.10;;;22.57;;
12312;SDS011;6220;53.580;9.758;2022-11-15T00:32:49;27.43;;;21.90;;
12312;SDS011;6220;53.580;9.758;2022-11-15T00:35:14;28.53;;;21.97;;
12312;SDS011;6220;53.580;9.758;2022-11-15T00:37:40;29.77;;;22.47;;
12312;SDS011;6220;53.580;9.758;2022-11-15T00:40:05;26.97;;;21.03;;
12312;SDS011;6220;53.580;9.758;2022-11-15T00:42:31;29.87;;;22.00;;
12312;SDS011;6220;53.580;9.758;2022-11-15T00:44:57;31.43;;;20.83;;
12312;SDS011;6220;53.580;9.758;2022-11-15T00:47:22;28.17;;;20.77;;
12312;SDS011;6220;53.580;9.758;2022-11-15T00:49:47;26.23;;;21.13;;
12312;SDS011;6220;53.580;9.758;2022-11-15T00:52:13;28.37;;;22.00;;
12312;SDS011;6220;53.580;9.758;2022-11-15T00:54:38;24.07;;;20.87;;
12312;SDS011;6220;53.580;9.758;2022-11-15T00:57:04;24.50;;;20.53;;
12312;SDS011;6220;53.580;9.758;2022-11-15T00:59:29;25.63;;;19.67;;
12312;SDS011;6220;53.580;9.758;2022-11-15T01:01:55;26.63;;;20.57;;
12312;SDS011;6220;53.580;9.758;2022-11-15T01:04:20;25.87;;;20.67;;
12312;SDS011;6220;53.580;9.758;2022-11-15T01:06:45;24.63;;;19.83;;
12312;SDS011;6220;53.580;9.758;2022-11-15T01:09:11;24.43;;;19.50;;
12312;SDS011;6220;53.580;9.758;2022-11-15T01:11:36;26.57;;;20.57;;
12312;SDS011;6220;53.580;9.758;2022-11-15T01:14:02;26.40;;;20.00;;
12312;SDS011;6220;53.580;9.758;2022-11-15T01:16:27;25.40;;;20.13;;
12312;SDS011;6220;53.580;9.758;2022-11-15T01:18:52;25.57;;;19.60;;
12312;SDS011;6220;53.580;9.758;2022-11-15T01:21:18;24.53;;;19.13;;
12312;SDS011;6220;53.580;9.758;2022-11-15T01:23:44;25.03;;;19.53;;
12312;SDS011;6220;53.580;9.758;2022-11-15T01:26:11;23.17;;;18.10;;
12312;SDS011;6220;53.580;9.758;2022-11-15T01:28:38;24.07;;;18.43;;
12312;SDS011;6220;53.580;9.758;2022-11-15T01:31:06;24.33;;;19.27;;
12312;SDS011;6220;53.580;9.758;2022-11-15T01:33:34;23.60;;;19.13;;
12312;SDS011;6220;53.580;9.758;2022-11-15T01:36:05;25.10;;;18.60;;
12312;SDS011;6220;53.580;9.758;2022-11-15T01:38:31;23.30;;;18.37;;
12312;SDS011;6220;53.580;9.758;2022-11-15T01:40:57;21.40;;;17.10;;
12312;SDS011;6220;53.580;9.758;2022-11-15T01:43:23;22.57;;;17.70;;
12312;SDS011;6220;53.580;9.758;2022-11-15T01:45:58;23.03;;;17.90;;
12312;SDS011;6220;53.580;9.758;2022-11-15T01:48:28;22.03;;;17.03;;
12312;SDS011;6220;53.580;9.758;2022-11-15T01:50:57;25.23;;;18.10;;
12312;SDS011;6220;53.580;9.758;2022-11-15T01:53:23;22.50;;;17.90;;
12312;SDS011;6220;53.580;9.758;2022-11-15T01:55:49;21.87;;;17.07;;
12312;SDS011;6220;53.580;9.758;2022-11-15T01:58:15;20.10;;;17.07;;
12312;SDS011;6220;53.580;9.758;2022-11-15T02:00:40;23.80;;;17.67;;
12312;SDS011;6220;53.580;9.758;2022-11-15T02:03:05;22.47;;;17.73;;
12312;SDS011;6220;53.580;9.758;2022-11-15T02:05:31;21.10;;;16.17;;
12312;SDS011;6220;53.580;9.758;2022-11-15T02:07:56;22.57;;;16.87;;
12312;SDS011;6220;53.580;9.758;2022-11-15T02:10:23;22.87;;;17.03;;
12312;SDS011;6220;53.580;9.758;2022-11-15T02:12:49;25.60;;;16.57;;
12312;SDS011;6220;53.580;9.758;2022-11-15T02:15:15;17.53;;;15.63;;
12312;SDS011;6220;53.580;9.758;2022-11-15T02:26:07;17.50;;;14.80;;
12312;SDS011;6220;53.580;9.758;2022-11-15T02:29:03;18.73;;;14.67;;
12312;SDS011;6220;53.580;9.758;2022-11-15T02:34:15;18.73;;;14.87;;
12312;SDS011;6220;53.580;9.758;2022-11-15T02:42:04;18.70;;;14.50;;
12312;SDS011;6220;53.580;9.758;2022-11-15T02:44:53;16.53;;;13.73;;
12312;SDS011;6220;53.580;9.758;2022-11-15T02:47:20;17.13;;;13.63;;
12312;SDS011;6220;53.580;9.758;2022-11-15T02:49:47;16.27;;;13.10;;
12312;SDS011;6220;53.580;9.758;2022-11-15T02:52:15;18.47;;;13.53;;
12312;SDS011;6220;53.580;9.758;2022-11-15T02:54:58;15.73;;;13.30;;
12312;SDS011;6220;53.580;9.758;2022-11-15T02:57:38;15.77;;;13.47;;
12312;SDS011;6220;53.580;9.758;2022-11-15T03:00:21;14.23;;;12.43;;
12312;SDS011;6220;53.580;9.758;2022-11-15T03:11:18;17.13;;;12.87;;
12312;SDS011;6220;53.580;9.758;2022-11-15T03:16:34;16.37;;;12.23;;
12312;SDS011;6220;53.580;9.758;2022-11-15T03:19:16;15.73;;;12.67;;
12312;SDS011;6220;53.580;9.758;2022-11-15T03:22:04;16.00;;;12.63;;
12312;SDS011;6220;53.580;9.758;2022-11-15T03:24:30;15.67;;;12.90;;
12312;SDS011;6220;53.580;9.758;2022-11-15T03:26:56;15.77;;;12.33;;
12312;SDS011;6220;53.580;9.758;2022-11-15T03:29:26;17.77;;;13.47;;
12312;SDS011;6220;53.580;9.758;2022-11-15T03:31:55;16.27;;;12.50;;
12312;SDS011;6220;53.580;9.758;2022-11-15T03:36:53;17.90;;;13.93;;
12312;SDS011;6220;53.580;9.758;2022-11-15T03:39:18;16.97;;;14.37;;
12312;SDS011;6220;53.580;9.758;2022-11-15T03:42:29;18.83;;;14.33;;
12312;SDS011;6220;53.580;9.758;2022-11-15T03:44:53;23.40;;;15.10;;
12312;SDS011;6220;53.580;9.758;2022-11-15T03:47:43;18.03;;;13.87;;
12312;SDS011;6220;53.580;9.758;2022-11-15T03:50:26;22.70;;;14.70;;
12312;SDS011;6220;53.580;9.758;2022-11-15T03:52:52;17.00;;;13.97;;
12312;SDS011;6220;53.580;9.758;2022-11-15T03:55:20;17.30;;;13.63;;
12312;SDS011;6220;53.580;9.758;2022-11-15T03:57:46;17.37;;;14.13;;
12312;SDS011;6220;53.580;9.758;2022-11-15T04:00:14;17.57;;;14.03;;
12312;SDS011;6220;53.580;9.758;2022-11-15T04:02:40;17.90;;;14.43;;
12312;SDS011;6220;53.580;9.758;2022-11-15T04:05:05;20.33;;;13.90;;
12312;SDS011;6220;53.580;9.758;2022-11-15T04:07:31;17.30;;;13.20;;
12312;SDS011;6220;53.580;9.758;2022-11-15T04:09:56;18.97;;;13.50;;
12312;SDS011;6220;53.580;9.758;2022-11-15T04:12:28;20.43;;;14.33;;
12312;SDS011;6220;53.580;9.758;2022-11-15T04:14:57;15.40;;;12.97;;
12312;SDS011;6220;53.580;9.758;2022-11-15T04:17:33;17.63;;;13.67;;
12312;SDS011;6220;53.580;9.758;2022-11-15T04:20:18;15.23;;;13.07;;
12312;SDS011;6220;53.580;9.758;2022-11-15T04:23:14;15.07;;;12.73;;
12312;SDS011;6220;53.580;9.758;2022-11-15T04:26:12;17.80;;;12.67;;
12312;SDS011;6220;53.580;9.758;2022-11-15T04:28:41;18.00;;;12.33;;
12312;SDS011;6220;53.580;9.758;2022-11-15T04:31:25;15.60;;;12.80;;
12312;SDS011;6220;53.580;9.758;2022-11-15T04:33:51;14.30;;;11.80;;
12312;SDS011;6220;53.580;9.758;2022-11-15T04:36:17;13.90;;;11.73;;
12312;SDS011;6220;53.580;9.758;2022-11-15T04:39:01;15.57;;;11.90;;
12312;SDS011;6220;53.580;9.758;2022-11-15T04:41:26;17.17;;;13.27;;
12312;SDS011;6220;53.580;9.758;2022-11-15T04:43:51;15.37;;;11.60;;
12312;SDS011;6220;53.580;9.758;2022-11-15T04:46:17;14.63;;;11.53;;
12312;SDS011;6220;53.580;9.758;2022-11-15T04:48:42;18.40;;;12.00;;
12312;SDS011;6220;53.580;9.758;2022-11-15T04:51:08;14.67;;;12.13;;
12312;SDS011;6220;53.580;9.758;2022-11-15T04:53:33;14.90;;;12.27;;
12312;SDS011;6220;53.580;9.758;2022-11-15T04:55:58;16.97;;;11.47;;
12312;SDS011;6220;53.580;9.758;2022-11-15T04:58:24;15.83;;;11.43;;
12312;SDS011;6220;53.580;9.758;2022-11-15T05:00:49;15.50;;;12.20;;
12312;SDS011;6220;53.580;9.758;2022-11-15T05:03:14;15.90;;;11.70;;
12312;SDS011;6220;53.580;9.758;2022-11-15T05:05:58;15.77;;;11.67;;
12312;SDS011;6220;53.580;9.758;2022-11-15T05:08:24;17.57;;;11.70;;
12312;SDS011;6220;53.580;9.758;2022-11-15T05:10:50;18.93;;;12.23;;
12312;SDS011;6220;53.580;9.758;2022-11-15T05:13:15;15.33;;;11.50;;
12312;SDS011;6220;53.580;9.758;2022-11-15T05:15:41;13.90;;;11.33;;
12312;SDS011;6220;53.580;9.758;2022-11-15T05:18:06;15.77;;;11.63;;
12312;SDS011;6220;53.580;9.758;2022-11-15T05:20:31;17.90;;;14.77;;
12312;SDS011;6220;53.580;9.758;2022-11-15T05:22:57;17.73;;;14.43;;
12312;SDS011;6220;53.580;9.758;2022-11-15T05:25:22;22.20;;;15.10;;
12312;SDS011;6220;53.580;9.758;2022-11-15T05:27:48;22.70;;;16.63;;
12312;SDS011;6220;53.580;9.758;2022-11-15T05:30:14;27.53;;;15.83;;
12312;SDS011;6220;53.580;9.758;2022-11-15T05:32:40;19.10;;;15.77;;
12312;SDS011;6220;53.580;9.758;2022-11-15T05:35:05;18.80;;;15.40;;
12312;SDS011;6220;53.580;9.758;2022-11-15T05:37:32;20.87;;;16.07;;
12312;SDS011;6220;53.580;9.758;2022-11-15T05:39:57;18.73;;;14.57;;
12312;SDS011;6220;53.580;9.758;2022-11-15T05:42:23;20.97;;;15.33;;
12312;SDS011;6220;53.580;9.758;2022-11-15T05:44:49;19.80;;;15.63;;
12312;SDS011;6220;53.580;9.758;2022-11-15T05:47:17;22.37;;;16.80;;
12312;SDS011;6220;53.580;9.758;2022-11-15T05:49:45;17.77;;;14.93;;
12312;SDS011;6220;53.580;9.758;2022-11-15T05:52:13;18.63;;;16.13;;
12312;SDS011;6220;53.580;9.758;2022-11-15T05:54:39;21.20;;;15.97;;
12312;SDS011;6220;53.580;9.758;2022-11-15T05:57:05;19.07;;;15.37;;
12312;SDS011;6220;53.580;9.758;2022-11-15T05:59:31;21.83;;;15.20;;
12312;SDS011;6220;53.580;9.758;2022-11-15T06:01:57;20.33;;;15.33;;
12312;SDS011;6220;53.580;9.758;2022-11-15T06:04:23;17.07;;;15.20;;
12312;SDS011;6220;53.580;9.758;2022-11-15T06:06:48;23.20;;;15.70;;
12312;SDS011;6220;53.580;9.758;2022-11-15T06:09:13;19.43;;;14.83;;
12312;SDS011;6220;53.580;9.758;2022-11-15T06:11:39;17.30;;;14.67;;
12312;SDS011;6220;53.580;9.758;2022-11-15T06:14:04;19.77;;;14.40;;
12312;SDS011;6220;53.580;9.758;2022-11-15T06:16:29;20.07;;;14.53;;
12312;SDS011;6220;53.580;9.758;2022-11-15T06:18:55;16.17;;;13.97;;
12312;SDS011;6220;53.580;9.758;2022-11-15T06:21:20;19.40;;;14.77;;
12312;SDS011;6220;53.580;9.758;2022-11-15T06:23:46;16.60;;;14.27;;
12312;SDS011;6220;53.580;9.758;2022-11-15T06:26:11;19.13;;;13.90;;
12312;SDS011;6220;53.580;9.758;2022-11-15T06:28:37;18.37;;;13.97;;
12312;SDS011;6220;53.580;9.758;2022-11-15T06:31:06;17.77;;;14.57;;
12312;SDS011;6220;53.580;9.758;2022-11-15T06:33:32;27.83;;;20.93;;
12312;SDS011;6220;53.580;9.758;2022-11-15T06:36:02;17.10;;;13.93;;
12312;SDS011;6220;53.580;9.758;2022-11-15T06:38:28;19.17;;;14.97;;
12312;SDS011;6220;53.580;9.758;2022-11-15T06:40:53;17.93;;;14.43;;
12312;SDS011;6220;53.580;9.758;2022-11-15T06:43:18;18.60;;;14.87;;
12312;SDS011;6220;53.580;9.758;2022-11-15T06:45:44;17.43;;;13.40;;
12312;SDS011;6220;53.580;9.758;2022-11-15T06:48:09;15.57;;;12.40;;
12312;SDS011;6220;53.580;9.758;2022-11-15T06:50:34;18.03;;;13.20;;
12312;SDS011;6220;53.580;9.758;2022-11-15T06:53:00;18.13;;;13.80;;
12312;SDS011;6220;53.580;9.758;2022-11-15T06:55:27;14.80;;;11.80;;
12312;SDS011;6220;53.580;9.758;2022-11-15T06:57:52;15.03;;;12.37;;
12312;SDS011;6220;53.580;9.758;2022-11-15T07:00:18;17.93;;;13.70;;
12312;SDS011;6220;53.580;9.758;2022-11-15T07:02:45;20.67;;;15.00;;
12312;SDS011;6220;53.580;9.758;2022-11-15T07:05:11;16.13;;;12.70;;
12312;SDS011;6220;53.580;9.758;2022-11-15T07:07:37;15.77;;;12.53;;
12312;SDS011;6220;53.580;9.758;2022-11-15T07:10:02;23.67;;;18.00;;
12312;SDS011;6220;53.580;9.758;2022-11-15T07:12:28;20.80;;;16.00;;
12312;SDS011;6220;53.580;9.758;2022-11-15T07:14:53;17.27;;;12.57;;
12312;SDS011;6220;53.580;9.758;2022-11-15T07:17:19;14.50;;;12.23;;
12312;SDS011;6220;53.580;9.758;2022-11-15T07:19:44;15.77;;;12.03;;
12312;SDS011;6220;53.580;9.758;2022-11-15T07:22:09;19.83;;;12.73;;
12312;SDS011;6220;53.580;9.758;2022-11-15T07:24:35;13.70;;;11.53;;
12312;SDS011;6220;53.580;9.758;2022-11-15T07:27:00;15.63;;;11.73;;
12312;SDS011;6220;53.580;9.758;2022-11-15T07:29:25;15.10;;;11.80;;
12312;SDS011;6220;53.580;9.758;2022-11-15T07:31:51;16.13;;;11.33;;
12312;SDS011;6220;53.580;9.758;2022-11-15T07:34:16;12.53;;;10.77;;
12312;SDS011;6220;53.580;9.758;2022-11-15T07:36:41;14.63;;;11.30;;
12312;SDS011;6220;53.580;9.758;2022-11-15T07:39:07;15.97;;;11.77;;
12312;SDS011;6220;53.580;9.758;2022-11-15T07:41:32;15.33;;;11.13;;
12312;SDS011;6220;53.580;9.758;2022-11-15T07:43:58;15.23;;;11.67;;
12312;SDS011;6220;53.580;9.758;2022-11-15T07:46:23;13.53;;;11.33;;
12312;SDS011;6220;53.580;9.758;2022-11-15T07:48:48;14.00;;;10.77;;
12312;SDS011;6220;53.580;9.758;2022-11-15T07:51:14;15.33;;;11.40;;
12312;SDS011;6220;53.580;9.758;2022-11-15T07:53:41;14.73;;;11.23;;
12312;SDS011;6220;53.580;9.758;2022-11-15T07:56:07;15.00;;;12.23;;
12312;SDS011;6220;53.580;9.758;2022-11-15T07:58:32;14.47;;;11.77;;
12312;SDS011;6220;53.580;9.758;2022-11-15T08:00:58;18.57;;;12.90;;
12312;SDS011;6220;53.580;9.758;2022-11-15T08:03:23;17.17;;;12.53;;
12312;SDS011;6220;53.580;9.758;2022-11-15T08:05:52;19.43;;;13.57;;
12312;SDS011;6220;53.580;9.758;2022-11-15T08:08:17;17.63;;;13.13;;
12312;SDS011;6220;53.580;9.758;2022-11-15T08:10:43;19.70;;;13.23;;
12312;SDS011;6220;53.580;9.758;2022-11-15T08:13:09;17.23;;;13.17;;
12312;SDS011;6220;53.580;9.758;2022-11-15T08:15:36;16.50;;;13.23;;
12312;SDS011;6220;53.580;9.758;2022-11-15T08:18:20;18.83;;;13.70;;
12312;SDS011;6220;53.580;9.758;2022-11-15T08:20:45;19.93;;;13.40;;
12312;SDS011;6220;53.580;9.758;2022-11-15T08:23:11;15.83;;;12.23;;
12312;SDS011;6220;53.580;9.758;2022-11-15T08:25:37;24.27;;;15.63;;
12312;SDS011;6220;53.580;9.758;2022-11-15T08:28:04;18.77;;;13.70;;
12312;SDS011;6220;53.580;9.758;2022-11-15T08:30:33;19.87;;;16.23;;
12312;SDS011;6220;53.580;9.758;2022-11-15T08:33:01;22.70;;;13.47;;
12312;SDS011;6220;53.580;9.758;2022-11-15T08:35:26;16.20;;;13.93;;
12312;SDS011;6220;53.580;9.758;2022-11-15T08:37:52;14.00;;;11.57;;
12312;SDS011;6220;53.580;9.758;2022-11-15T08:40:18;15.63;;;11.40;;
12312;SDS011;6220;53.580;9.758;2022-11-15T08:42:45;14.00;;;11.23;;
12312;SDS011;6220;53.580;9.758;2022-11-15T08:45:11;14.20;;;10.87;;
12312;SDS011;6220;53.580;9.758;2022-11-15T08:47:37;15.03;;;10.57;;
12312;SDS011;6220;53.580;9.758;2022-11-15T08:50:02;13.30;;;11.07;;
12312;SDS011;6220;53.580;9.758;2022-11-15T08:52:27;14.17;;;10.13;;
12312;SDS011;6220;53.580;9.758;2022-11-15T08:54:53;14.93;;;10.90;;
12312;SDS011;6220;53.580;9.758;2022-11-15T08:57:18;16.13;;;11.17;;
12312;SDS011;6220;53.580;9.758;2022-11-15T08:59:43;13.70;;;9.77;;
12312;SDS011;6220;53.580;9.758;2022-11-15T09:02:11;12.13;;;9.87;;
12312;SDS011;6220;53.580;9.758;2022-11-15T09:04:39;17.67;;;10.97;;
12312;SDS011;6220;53.580;9.758;2022-11-15T09:07:06;13.70;;;10.00;;
12312;SDS011;6220;53.580;9.758;2022-11-15T09:09:31;11.07;;;9.93;;
12312;SDS011;6220;53.580;9.758;2022-11-15T09:11:57;14.13;;;10.40;;
12312;SDS011;6220;53.580;9.758;2022-11-15T09:14:22;12.30;;;10.50;;
12312;SDS011;6220;53.580;9.758;2022-11-15T09:16:47;11.50;;;9.87;;
12312;SDS011;6220;53.580;9.758;2022-11-15T09:19:13;16.03;;;10.80;;
12312;SDS011;6220;53.580;9.758;2022-11-15T09:21:39;13.30;;;10.17;;
12312;SDS011;6220;53.580;9.758;2022-11-15T09:24:05;12.73;;;9.87;;
12312;SDS011;6220;53.580;9.758;2022-11-15T09:26:30;10.90;;;9.53;;
12312;SDS011;6220;53.580;9.758;2022-11-15T09:28:56;11.33;;;9.67;;
12312;SDS011;6220;53.580;9.758;2022-11-15T09:31:21;13.43;;;10.53;;
12312;SDS011;6220;53.580;9.758;2022-11-15T09:33:46;12.70;;;10.67;;
12312;SDS011;6220;53.580;9.758;2022-11-15T09:36:12;12.60;;;10.70;;
12312;SDS011;6220;53.580;9.758;2022-11-15T09:38:37;14.10;;;10.30;;
12312;SDS011;6220;53.580;9.758;2022-11-15T09:43:45;15.60;;;11.17;;
12312;SDS011;6220;53.580;9.758;2022-11-15T09:46:25;14.43;;;10.50;;
12312;SDS011;6220;53.580;9.758;2022-11-15T09:48:55;16.00;;;10.60;;
12312;SDS011;6220;53.580;9.758;2022-11-15T09:57:19;16.53;;;11.27;;
12312;SDS011;6220;53.580;9.758;2022-11-15T10:05:47;12.60;;;10.07;;
12312;SDS011;6220;53.580;9.758;2022-11-15T10:08:28;17.87;;;10.87;;
12312;SDS011;6220;53.580;9.758;2022-11-15T10:11:09;12.83;;;9.83;;
12312;SDS011;6220;53.580;9.758;2022-11-15T10:13:37;13.73;;;9.57;;
12312;SDS011;6220;53.580;9.758;2022-11-15T10:16:17;12.63;;;9.70;;
12312;SDS011;6220;53.580;9.758;2022-11-15T10:24:12;12.73;;;10.97;;
12312;SDS011;6220;53.580;9.758;2022-11-15T10:26:38;17.37;;;12.27;;
12312;SDS011;6220;53.580;9.758;2022-11-15T10:29:06;14.20;;;12.07;;
12312;SDS011;6220;53.580;9.758;2022-11-15T10:31:32;13.07;;;11.63;;
12312;SDS011;6220;53.580;9.758;2022-11-15T10:34:10;20.27;;;12.03;;
12312;SDS011;6220;53.580;9.758;2022-11-15T10:36:38;17.13;;;13.20;;
12312;SDS011;6220;53.580;9.758;2022-11-15T10:39:12;14.13;;;10.87;;
12312;SDS011;6220;53.580;9.758;2022-11-15T10:41:39;15.60;;;12.43;;
12312;SDS011;6220;53.580;9.758;2022-11-15T10:46:42;16.17;;;12.80;;
12312;SDS011;6220;53.580;9.758;2022-11-15T10:49:18;19.53;;;12.87;;
12312;SDS011;6220;53.580;9.758;2022-11-15T10:54:12;18.90;;;12.03;;
12312;SDS011;6220;53.580;9.758;2022-11-15T10:56:50;19.40;;;12.53;;
12312;SDS011;6220;53.580;9.758;2022-11-15T10:59:26;13.60;;;12.20;;
12312;SDS011;6220;53.580;9.758;2022-11-15T11:01:53;18.40;;;12.50;;
12312;SDS011;6220;53.580;9.758;2022-11-15T11:04:19;14.37;;;11.23;;
12312;SDS011;6220;53.580;9.758;2022-11-15T11:06:55;19.40;;;11.93;;
12312;SDS011;6220;53.580;9.758;2022-11-15T11:09:32;17.20;;;11.37;;
12312;SDS011;6220;53.580;9.758;2022-11-15T11:12:09;14.20;;;10.73;;
12312;SDS011;6220;53.580;9.758;2022-11-15T11:14:35;16.90;;;11.90;;
12312;SDS011;6220;53.580;9.758;2022-11-15T11:31:00;20.07;;;14.70;;
12312;SDS011;6220;53.580;9.758;2022-11-15T11:33:36;13.80;;;10.03;;
12312;SDS011;6220;53.580;9.758;2022-11-15T11:36:26;13.70;;;9.97;;
12312;SDS011;6220;53.580;9.758;2022-11-15T11:39:15;13.33;;;10.23;;
12312;SDS011;6220;53.580;9.758;2022-11-15T11:41:43;14.43;;;10.63;;
12312;SDS011;6220;53.580;9.758;2022-11-15T11:47:24;12.90;;;9.67;;
12312;SDS011;6220;53.580;9.758;2022-11-15T11:53:01;11.33;;;9.37;;
12312;SDS011;6220;53.580;9.758;2022-11-15T12:00:38;12.30;;;8.90;;
12312;SDS011;6220;53.580;9.758;2022-11-15T12:06:09;16.43;;;9.50;;
12312;SDS011;6220;53.580;9.758;2022-11-15T12:08:49;15.13;;;9.77;;
12312;SDS011;6220;53.580;9.758;2022-11-15T12:11:22;13.23;;;9.37;;
12312;SDS011;6220;53.580;9.758;2022-11-15T12:13:55;12.17;;;9.23;;
12312;SDS011;6220;53.580;9.758;2022-11-15T12:16:23;13.10;;;10.23;;
12312;SDS011;6220;53.580;9.758;2022-11-15T12:18:53;11.90;;;8.80;;
12312;SDS011;6220;53.580;9.758;2022-11-15T12:24:18;12.63;;;9.17;;
12312;SDS011;6220;53.580;9.758;2022-11-15T12:26:59;10.60;;;9.10;;
12312;SDS011;6220;53.580;9.758;2022-11-15T12:29:35;13.73;;;9.87;;
12312;SDS011;6220;53.580;9.758;2022-11-15T12:35:03;13.17;;;9.07;;
12312;SDS011;6220;53.580;9.758;2022-11-15T12:42:58;12.13;;;8.73;;
12312;SDS011;6220;53.580;9.758;2022-11-15T12:45:32;8.93;;;8.00;;
12312;SDS011;6220;53.580;9.758;2022-11-15T12:56:08;10.53;;;9.37;;
12312;SDS011;6220;53.580;9.758;2022-11-15T13:01:08;11.80;;;8.87;;
12312;SDS011;6220;53.580;9.758;2022-11-15T13:09:58;12.53;;;8.20;;
12312;SDS011;6220;53.580;9.758;2022-11-15T13:12:07;11.60;;;8.00;;
12312;SDS011;6220;53.580;9.758;2022-11-15T13:17:02;12.93;;;9.23;;
12312;SDS011;6220;53.580;9.758;2022-11-15T13:22:38;11.73;;;8.77;;
12312;SDS011;6220;53.580;9.758;2022-11-15T13:27:52;14.57;;;8.60;;
12312;SDS011;6220;53.580;9.758;2022-11-15T13:30:20;9.27;;;8.23;;
12312;SDS011;6220;53.580;9.758;2022-11-15T13:32:47;12.27;;;8.73;;
12312;SDS011;6220;53.580;9.758;2022-11-15T13:35:26;9.43;;;7.97;;
12312;SDS011;6220;53.580;9.758;2022-11-15T13:37:54;10.90;;;8.50;;
12312;SDS011;6220;53.580;9.758;2022-11-15T13:42:48;10.83;;;8.77;;
12312;SDS011;6220;53.580;9.758;2022-11-15T13:45:15;10.77;;;8.73;;
12312;SDS011;6220;53.580;9.758;2022-11-15T13:47:41;11.47;;;8.83;;
12312;SDS011;6220;53.580;9.758;2022-11-15T13:50:10;10.83;;;8.47;;
12312;SDS011;6220;53.580;9.758;2022-11-15T13:52:37;11.13;;;8.87;;
12312;SDS011;6220;53.580;9.758;2022-11-15T13:55:16;11.67;;;8.27;;
12312;SDS011;6220;53.580;9.758;2022-11-15T13:57:56;12.83;;;8.53;;
12312;SDS011;6220;53.580;9.758;2022-11-15T14:02:51;11.23;;;8.67;;
12312;SDS011;6220;53.580;9.758;2022-11-15T14:05:17;10.10;;;8.73;;
12312;SDS011;6220;53.580;9.758;2022-11-15T14:10:29;9.77;;;8.60;;
12312;SDS011;6220;53.580;9.758;2022-11-15T14:12:57;9.67;;;7.83;;
12312;SDS011;6220;53.580;9.758;2022-11-15T14:17:51;9.43;;;8.50;;
12312;SDS011;6220;53.580;9.758;2022-11-15T14:20:27;11.90;;;8.70;;
12312;SDS011;6220;53.580;9.758;2022-11-15T14:23:01;13.70;;;8.93;;
12312;SDS011;6220;53.580;9.758;2022-11-15T14:25:28;12.33;;;8.63;;
12312;SDS011;6220;53.580;9.758;2022-11-15T14:31:01;15.00;;;9.57;;
12312;SDS011;6220;53.580;9.758;2022-11-15T14:33:35;14.03;;;9.37;;
12312;SDS011;6220;53.580;9.758;2022-11-15T14:38:31;13.30;;;10.13;;
12312;SDS011;6220;53.580;9.758;2022-11-15T14:40:56;12.73;;;9.27;;
12312;SDS011;6220;53.580;9.758;2022-11-15T14:43:22;11.47;;;9.00;;
12312;SDS011;6220;53.580;9.758;2022-11-15T14:45:48;11.30;;;9.03;;
12312;SDS011;6220;53.580;9.758;2022-11-15T14:48:13;11.50;;;9.37;;
12312;SDS011;6220;53.580;9.758;2022-11-15T14:50:39;10.73;;;9.03;;
12312;SDS011;6220;53.580;9.758;2022-11-15T14:53:04;11.97;;;9.13;;
12312;SDS011;6220;53.580;9.758;2022-11-15T14:55:34;12.30;;;9.10;;
12312;SDS011;6220;53.580;9.758;2022-11-15T14:58:01;11.97;;;9.50;;
12312;SDS011;6220;53.580;9.758;2022-11-15T15:00:28;12.77;;;8.87;;
12312;SDS011;6220;53.580;9.758;2022-11-15T15:02:54;10.97;;;9.00;;
12312;SDS011;6220;53.580;9.758;2022-11-15T15:05:21;12.33;;;9.13;;
12312;SDS011;6220;53.580;9.758;2022-11-15T15:07:48;11.53;;;9.67;;
12312;SDS011;6220;53.580;9.758;2022-11-15T15:10:14;12.07;;;10.70;;
12312;SDS011;6220;53.580;9.758;2022-11-15T15:12:40;14.77;;;10.07;;
12312;SDS011;6220;53.580;9.758;2022-11-15T15:15:05;12.27;;;9.93;;
12312;SDS011;6220;53.580;9.758;2022-11-15T15:17:34;13.60;;;9.60;;
12312;SDS011;6220;53.580;9.758;2022-11-15T15:19:59;10.33;;;9.00;;
12312;SDS011;6220;53.580;9.758;2022-11-15T15:22:25;12.57;;;10.17;;
12312;SDS011;6220;53.580;9.758;2022-11-15T15:24:52;10.90;;;9.67;;
12312;SDS011;6220;53.580;9.758;2022-11-15T15:27:18;14.57;;;9.43;;
12312;SDS011;6220;53.580;9.758;2022-11-15T15:29:43;13.53;;;10.30;;
12312;SDS011;6220;53.580;9.758;2022-11-15T15:32:09;10.77;;;9.07;;
12312;SDS011;6220;53.580;9.758;2022-11-15T15:34:35;14.40;;;10.07;;
12312;SDS011;6220;53.580;9.758;2022-11-15T15:39:54;14.40;;;10.63;;
12312;SDS011;6220;53.580;9.758;2022-11-15T15:42:21;12.23;;;9.27;;
12312;SDS011;6220;53.580;9.758;2022-11-15T15:44:47;12.00;;;9.73;;
12312;SDS011;6220;53.580;9.758;2022-11-15T15:47:15;10.63;;;9.10;;
12312;SDS011;6220;53.580;9.758;2022-11-15T15:49:42;12.73;;;9.33;;
12312;SDS011;6220;53.580;9.758;2022-11-15T15:52:07;13.23;;;10.77;;
12312;SDS011;6220;53.580;9.758;2022-11-15T15:54:33;13.23;;;10.30;;
12312;SDS011;6220;53.580;9.758;2022-11-15T15:56:58;14.70;;;10.03;;
12312;SDS011;6220;53.580;9.758;2022-11-15T15:59:23;11.40;;;9.40;;
12312;SDS011;6220;53.580;9.758;2022-11-15T16:01:49;12.97;;;9.60;;
12312;SDS011;6220;53.580;9.758;2022-11-15T16:04:14;12.00;;;10.10;;
12312;SDS011;6220;53.580;9.758;2022-11-15T16:06:40;14.13;;;9.83;;
12312;SDS011;6220;53.580;9.758;2022-11-15T16:09:11;13.50;;;9.50;;
12312;SDS011;6220;53.580;9.758;2022-11-15T16:11:38;14.40;;;10.17;;
12312;SDS011;6220;53.580;9.758;2022-11-15T16:14:03;14.07;;;10.93;;
12312;SDS011;6220;53.580;9.758;2022-11-15T16:16:29;13.13;;;10.23;;
12312;SDS011;6220;53.580;9.758;2022-11-15T16:18:54;13.27;;;10.87;;
12312;SDS011;6220;53.580;9.758;2022-11-15T16:21:19;16.53;;;12.40;;
12312;SDS011;6220;53.580;9.758;2022-11-15T16:23:45;14.23;;;11.57;;
12312;SDS011;6220;53.580;9.758;2022-11-15T16:26:19;17.57;;;11.83;;
12312;SDS011;6220;53.580;9.758;2022-11-15T16:28:51;11.93;;;10.23;;
12312;SDS011;6220;53.580;9.758;2022-11-15T16:31:17;13.63;;;10.00;;
12312;SDS011;6220;53.580;9.758;2022-11-15T16:33:45;13.10;;;10.33;;
12312;SDS011;6220;53.580;9.758;2022-11-15T16:36:44;13.60;;;10.03;;
12312;SDS011;6220;53.580;9.758;2022-11-15T16:39:02;10.60;;;9.13;;
12312;SDS011;6220;53.580;9.758;2022-11-15T16:41:29;10.20;;;8.80;;
12312;SDS011;6220;53.580;9.758;2022-11-15T16:43:54;10.70;;;8.93;;
12312;SDS011;6220;53.580;9.758;2022-11-15T16:46:20;11.93;;;9.87;;
12312;SDS011;6220;53.580;9.758;2022-11-15T16:48:46;11.90;;;10.37;;
12312;SDS011;6220;53.580;9.758;2022-11-15T16:51:12;11.43;;;9.40;;
12312;SDS011;6220;53.580;9.758;2022-11-15T16:53:37;14.30;;;8.93;;
12312;SDS011;6220;53.580;9.758;2022-11-15T16:56:03;9.53;;;8.53;;
12312;SDS011;6220;53.580;9.758;2022-11-15T16:58:28;15.40;;;8.93;;
12312;SDS011;6220;53.580;9.758;2022-11-15T17:00:55;12.07;;;9.17;;
12312;SDS011;6220;53.580;9.758;2022-11-15T17:03:21;11.50;;;9.10;;